Terminal Aerodrome Forecast
Issued by NWS

Current Version | Previous Version | Graphics & Text | Print | Product List | Glossary Off
Versions: 1 2 3 4 5 6 7 8 9 10 11 12 13 14 15 16 17 18 19

793
FTUS41 KILN 200536
TAFLCK
TAF
KLCK 200536Z 2006/2106 20008KT P6SM BKN250 WS020/24045KT
     FM201100 21011KT P6SM BKN250
     FM202000 23012KT P6SM BKN022
     FM210300 20005KT P6SM BKN014 OVC020=

USA.gov is the U.S. government's official web portal to all federal, state and local government web resources and services.